createdAt,value
2022-11-04T00:00:53.643Z,8.93
2022-11-04T00:03:20.031Z,8.91
2022-11-04T00:05:46.690Z,8.91
2022-11-04T00:08:13.126Z,8.92
2022-11-04T00:10:39.449Z,8.93
2022-11-04T00:13:06.324Z,8.92
2022-11-04T00:15:36.917Z,8.91
2022-11-04T00:18:03.536Z,8.91
2022-11-04T00:20:29.943Z,8.90
2022-11-04T00:22:56.338Z,8.91
2022-11-04T00:25:23.284Z,8.94
2022-11-04T00:27:49.731Z,8.93
2022-11-04T00:30:16.284Z,8.90
2022-11-04T00:32:42.630Z,8.90
2022-11-04T00:35:10.356Z,8.90
2022-11-04T00:37:41.661Z,8.91
2022-11-04T00:40:09.720Z,8.91
2022-11-04T00:42:36.135Z,8.93
2022-11-04T00:45:02.898Z,8.93
2022-11-04T00:47:29.403Z,8.92
2022-11-04T00:49:55.815Z,8.94
2022-11-04T00:52:22.448Z,8.93
2022-11-04T00:54:48.956Z,8.92
2022-11-04T00:57:16.047Z,8.95
2022-11-04T00:59:42.613Z,8.91
2022-11-04T01:02:10.609Z,8.94
2022-11-04T01:04:37.309Z,8.95
2022-11-04T01:07:03.726Z,8.98
2022-11-04T01:09:30.394Z,8.95
2022-11-04T01:11:56.846Z,8.93
2022-11-04T01:14:23.655Z,8.91
2022-11-04T01:16:50.829Z,8.90
2022-11-04T01:19:18.105Z,8.93
2022-11-04T01:21:44.597Z,8.92
2022-11-04T01:24:11.024Z,8.90
2022-11-04T01:26:37.849Z,8.90
2022-11-04T01:29:04.285Z,8.91
2022-11-04T01:31:31.668Z,8.93
2022-11-04T01:33:59.118Z,8.93
2022-11-04T01:36:26.842Z,8.93
2022-11-04T01:38:55.492Z,8.92
2022-11-04T01:41:27.350Z,8.92
2022-11-04T01:44:02.148Z,8.89
2022-11-04T01:46:31.867Z,8.87
2022-11-04T01:49:06.700Z,8.83
2022-11-04T01:51:36.684Z,8.81
2022-11-04T01:54:06.607Z,8.79
2022-11-04T01:56:33.285Z,8.76
2022-11-04T01:59:06.107Z,8.74
2022-11-04T02:01:32.922Z,8.74
2022-11-04T02:04:00.945Z,8.76
2022-11-04T02:06:27.526Z,8.79
2022-11-04T02:08:53.934Z,8.77
2022-11-04T02:11:20.586Z,8.77
2022-11-04T02:13:47.223Z,8.76
2022-11-04T02:16:19.391Z,8.78
2022-11-04T02:18:57.953Z,8.72
2022-11-04T02:21:37.714Z,8.70
2022-11-04T02:24:22.744Z,8.64
2022-11-04T02:27:26.841Z,8.64
2022-11-04T02:30:16.203Z,8.60
2022-11-04T02:33:01.235Z,8.60
2022-11-04T02:35:27.554Z,8.58
2022-11-04T02:38:15.709Z,8.56
2022-11-04T02:41:02.270Z,8.53
2022-11-04T02:44:06.280Z,8.50
2022-11-04T02:46:40.472Z,8.44
2022-11-04T02:49:40.957Z,8.44
2022-11-04T02:52:11.323Z,8.39
2022-11-04T02:54:51.853Z,8.36
2022-11-04T02:57:32.339Z,8.36
2022-11-04T03:00:05.712Z,8.36
2022-11-04T03:02:42.496Z,8.34
2022-11-04T03:05:16.760Z,8.33
2022-11-04T03:07:45.888Z,8.35
2022-11-04T03:10:25.930Z,8.32
2022-11-04T03:13:00.521Z,8.31
2022-11-04T03:15:34.305Z,8.29
2022-11-04T03:18:18.919Z,8.33
2022-11-04T03:20:48.478Z,8.30
2022-11-04T03:23:15.474Z,8.25
2022-11-04T03:25:45.510Z,8.23
2022-11-04T03:28:26.438Z,8.20
2022-11-04T03:30:55.867Z,8.20
2022-11-04T03:33:26.744Z,8.17
2022-11-04T03:35:53.178Z,8.15
2022-11-04T03:38:22.028Z,8.12
2022-11-04T03:40:48.863Z,8.12
2022-11-04T03:43:22.254Z,8.10
2022-11-04T03:45:49.387Z,8.07
2022-11-04T03:48:15.825Z,8.05
2022-11-04T03:50:44.138Z,8.04
2022-11-04T03:53:13.507Z,8.06
2022-11-04T03:55:49.376Z,8.04
2022-11-04T03:58:40.688Z,8.02
2022-11-04T04:01:39.247Z,8.03
2022-11-04T04:04:17.060Z,7.96
2022-11-04T04:06:45.218Z,7.93
2022-11-04T04:09:23.524Z,7.91
2022-11-04T04:11:57.694Z,7.90
2022-11-04T04:14:31.164Z,7.91
2022-11-04T04:17:00.362Z,7.89
2022-11-04T04:19:27.968Z,7.85
2022-11-04T04:22:01.829Z,7.88
2022-11-04T04:24:39.925Z,7.83
2022-11-04T04:27:06.458Z,7.81
2022-11-04T04:29:33.251Z,7.78
2022-11-04T04:32:01.235Z,7.76
2022-11-04T04:34:30.083Z,7.75
2022-11-04T04:37:11.627Z,7.71
2022-11-04T04:39:56.258Z,7.70
2022-11-04T04:42:23.251Z,7.67
2022-11-04T04:44:49.804Z,7.64
2022-11-04T04:47:24.371Z,7.67
2022-11-04T04:49:52.393Z,7.66
2022-11-04T04:52:20.110Z,7.63
2022-11-04T04:54:46.509Z,7.62
2022-11-04T04:57:12.929Z,7.57
2022-11-04T04:59:39.249Z,7.57
2022-11-04T05:02:05.908Z,7.55
2022-11-04T05:04:32.487Z,7.53
2022-11-04T05:06:59.008Z,7.50
2022-11-04T05:09:25.359Z,7.46
2022-11-04T05:11:51.927Z,7.45
2022-11-04T05:14:18.590Z,7.42
2022-11-04T05:16:45.577Z,7.40
2022-11-04T05:19:12.192Z,7.37
2022-11-04T05:21:38.593Z,7.37
2022-11-04T05:24:05.284Z,7.36
2022-11-04T05:26:31.810Z,7.34
2022-11-04T05:28:58.158Z,7.32
2022-11-04T05:31:24.508Z,7.33
2022-11-04T05:33:50.885Z,7.36
2022-11-04T05:36:17.542Z,7.32
2022-11-04T05:38:44.275Z,7.30
2022-11-04T05:41:12.284Z,7.26
2022-11-04T05:43:38.975Z,7.27
2022-11-04T05:46:05.944Z,7.24
2022-11-04T05:48:36.386Z,7.24
2022-11-04T05:51:06.562Z,7.25
2022-11-04T05:53:32.967Z,7.15
2022-11-04T05:55:59.633Z,7.20
2022-11-04T05:58:26.300Z,7.12
2022-11-04T06:00:52.688Z,7.08
2022-11-04T06:03:19.529Z,7.05
2022-11-04T06:05:45.931Z,7.07
2022-11-04T06:08:12.457Z,7.02
2022-11-04T06:10:38.996Z,6.96
2022-11-04T06:13:05.406Z,6.98
2022-11-04T06:15:32.020Z,6.99
2022-11-04T06:17:58.639Z,7.02
2022-11-04T06:20:25.263Z,7.08
2022-11-04T06:22:51.728Z,7.05
2022-11-04T06:25:18.287Z,7.02
2022-11-04T06:27:44.598Z,7.01
2022-11-04T06:30:11.739Z,7.03
2022-11-04T06:32:38.223Z,7.03
2022-11-04T06:35:05.053Z,7.03
2022-11-04T06:37:31.419Z,7.02
2022-11-04T06:39:57.969Z,7.10
2022-11-04T06:42:24.628Z,7.08
2022-11-04T06:44:51.252Z,7.08
2022-11-04T06:47:22.177Z,7.10
2022-11-04T06:49:51.219Z,7.15
2022-11-04T06:52:17.569Z,7.11
2022-11-04T06:54:43.974Z,7.08
2022-11-04T06:57:11.428Z,7.09
2022-11-04T06:59:37.845Z,7.10
2022-11-04T07:02:04.311Z,7.08
2022-11-04T07:04:30.772Z,7.10
2022-11-04T07:06:57.254Z,7.11
2022-11-04T07:09:23.584Z,7.13
2022-11-04T07:11:49.999Z,7.14
2022-11-04T07:14:16.401Z,7.16
2022-11-04T07:16:43.267Z,7.19
2022-11-04T07:19:09.769Z,7.24
2022-11-04T07:21:36.218Z,7.24
2022-11-04T07:24:02.990Z,7.26
2022-11-04T07:26:29.515Z,7.33
2022-11-04T07:28:55.920Z,7.30
2022-11-04T07:31:22.400Z,7.32
2022-11-04T07:33:48.774Z,7.35
2022-11-04T07:36:15.477Z,7.46
2022-11-04T07:38:41.850Z,7.53
2022-11-04T07:41:08.405Z,7.58
2022-11-04T07:43:34.815Z,7.56
2022-11-04T07:46:10.354Z,7.49
2022-11-04T07:48:37.546Z,7.62
2022-11-04T07:51:06.309Z,7.71
2022-11-04T07:53:32.749Z,7.68
2022-11-04T07:55:59.173Z,7.60
2022-11-04T07:58:25.856Z,7.64
2022-11-04T08:01:00.906Z,7.71
2022-11-04T08:03:27.449Z,7.73
2022-11-04T08:05:58.941Z,7.80
2022-11-04T08:08:26.114Z,7.84
2022-11-04T08:11:00.890Z,7.94
2022-11-04T08:13:28.558Z,7.94
2022-11-04T08:15:55.384Z,8.03
2022-11-04T08:18:21.787Z,8.07
2022-11-04T08:20:49.950Z,8.24
2022-11-04T08:23:19.847Z,8.27
2022-11-04T08:25:47.229Z,8.34
2022-11-04T08:28:13.794Z,8.39
2022-11-04T08:30:40.297Z,8.49
2022-11-04T08:33:07.327Z,8.62
2022-11-04T08:35:40.728Z,8.74
2022-11-04T08:38:07.538Z,8.91
2022-11-04T08:40:36.683Z,9.02
2022-11-04T08:43:03.260Z,9.15
2022-11-04T08:45:33.492Z,9.23
2022-11-04T08:48:04.313Z,9.13
2022-11-04T08:50:32.020Z,9.19
2022-11-04T08:52:58.338Z,9.20
2022-11-04T08:55:24.807Z,9.13
2022-11-04T08:57:51.147Z,9.11
2022-11-04T09:00:17.821Z,9.20
2022-11-04T09:02:44.249Z,9.32
2022-11-04T09:05:10.790Z,9.27
2022-11-04T09:07:37.512Z,9.42
2022-11-04T09:10:05.564Z,9.35
2022-11-04T09:12:32.207Z,9.38
2022-11-04T09:14:58.645Z,9.48
2022-11-04T09:17:25.088Z,9.65
2022-11-04T09:19:51.411Z,9.49
2022-11-04T09:22:17.825Z,9.47
2022-11-04T09:24:44.429Z,9.44
2022-11-04T09:27:10.796Z,9.56
2022-11-04T09:29:37.214Z,9.52
2022-11-04T09:32:04.153Z,9.62
2022-11-04T09:34:30.760Z,9.74
2022-11-04T09:36:57.795Z,9.81
2022-11-04T09:39:25.031Z,9.65
2022-11-04T09:42:06.221Z,9.81
2022-11-04T09:45:19.379Z,9.92
2022-11-04T09:47:37.536Z,9.91
2022-11-04T09:50:08.544Z,10.05
2022-11-04T09:52:43.597Z,10.22
2022-11-04T09:55:29.413Z,10.32
2022-11-04T09:57:57.910Z,10.46
2022-11-04T10:00:25.578Z,10.62
2022-11-04T10:03:13.619Z,10.62
2022-11-04T10:05:57.122Z,10.73
2022-11-04T10:08:47.201Z,10.88
2022-11-04T10:11:32.194Z,10.98
2022-11-04T10:14:23.263Z,10.86
2022-11-04T10:17:07.651Z,11.28
2022-11-04T10:19:48.232Z,11.05
2022-11-04T10:22:31.118Z,10.99
2022-11-04T10:25:22.361Z,11.28
2022-11-04T10:27:51.137Z,11.01
2022-11-04T10:30:23.091Z,11.07
2022-11-04T10:32:56.419Z,11.14
2022-11-04T10:35:31.619Z,11.08
2022-11-04T10:38:13.188Z,11.49
2022-11-04T10:40:40.633Z,11.54
2022-11-04T10:43:12.791Z,11.72
2022-11-04T10:46:09.725Z,11.93
2022-11-04T10:48:57.182Z,11.47
2022-11-04T10:51:23.735Z,11.29
2022-11-04T10:53:58.702Z,11.66
2022-11-04T10:56:56.433Z,11.51
2022-11-04T10:59:48.503Z,11.67
2022-11-04T11:02:15.064Z,11.78
2022-11-04T11:04:42.142Z,11.98
2022-11-04T11:07:09.897Z,11.84
2022-11-04T11:09:53.830Z,11.53
2022-11-04T11:15:31.006Z,11.36
2022-11-04T11:18:02.305Z,11.61
2022-11-04T11:20:28.685Z,11.70
2022-11-04T11:22:55.905Z,11.67
2022-11-04T11:25:28.525Z,11.79
2022-11-04T11:28:04.034Z,12.04
2022-11-04T11:30:38.001Z,12.13
2022-11-04T11:33:14.209Z,12.23
2022-11-04T11:35:47.853Z,12.24
2022-11-04T11:38:18.508Z,11.95
2022-11-04T11:41:10.505Z,11.82
2022-11-04T11:43:35.129Z,11.83
2022-11-04T11:46:02.429Z,12.20
2022-11-04T11:48:29.667Z,12.31
2022-11-04T11:50:57.359Z,12.33
2022-11-04T11:53:23.799Z,12.24
2022-11-04T11:55:59.229Z,11.98
2022-11-04T12:01:46.629Z,12.44
2022-11-04T12:10:24.090Z,12.64
2022-11-04T12:13:24.750Z,12.59
2022-11-04T12:16:20.658Z,12.53
2022-11-04T12:19:08.224Z,12.19
2022-11-04T12:21:55.595Z,12.43
2022-11-04T12:24:40.452Z,12.51
2022-11-04T12:27:24.762Z,12.56
2022-11-04T12:30:03.211Z,12.54
2022-11-04T12:32:47.831Z,12.51
2022-11-04T12:35:32.418Z,12.51
2022-11-04T12:38:40.382Z,12.55
2022-11-04T12:41:37.997Z,12.32
2022-11-04T12:44:26.056Z,12.27
2022-11-04T12:47:17.331Z,12.16
2022-11-04T12:49:54.910Z,12.22
2022-11-04T12:52:48.897Z,12.28
2022-11-04T12:55:21.054Z,12.10
2022-11-04T12:58:06.256Z,12.12
2022-11-04T13:00:38.902Z,12.18
2022-11-04T13:03:18.941Z,12.29
2022-11-04T13:06:05.577Z,12.34
2022-11-04T13:08:40.311Z,12.18
2022-11-04T13:11:22.282Z,12.16
2022-11-04T13:13:51.351Z,12.16
2022-11-04T13:16:18.114Z,12.15
2022-11-04T13:18:45.445Z,12.20
2022-11-04T13:21:16.146Z,12.13
2022-11-04T13:24:02.713Z,11.73
2022-11-04T13:26:29.073Z,11.79
2022-11-04T13:29:17.174Z,11.82
2022-11-04T13:32:04.318Z,11.81
2022-11-04T13:34:49.747Z,11.96
2022-11-04T13:37:31.954Z,12.02
2022-11-04T13:40:07.093Z,11.72
2022-11-04T13:42:45.631Z,11.83
2022-11-04T13:45:15.401Z,12.09
2022-11-04T13:47:52.595Z,11.92
2022-11-04T13:50:32.924Z,12.12
2022-11-04T13:52:59.861Z,12.07
2022-11-04T13:55:26.253Z,12.35
2022-11-04T13:57:56.251Z,11.99
2022-11-04T14:00:28.429Z,11.80
2022-11-04T14:03:18.500Z,11.92
2022-11-04T14:06:00.787Z,12.44
2022-11-04T14:08:27.834Z,12.58
2022-11-04T14:10:54.155Z,12.57
2022-11-04T14:13:32.850Z,13.03
2022-11-04T14:16:02.085Z,12.79
2022-11-04T14:18:33.207Z,12.70
2022-11-04T14:21:07.376Z,12.56
2022-11-04T14:23:36.082Z,12.25
2022-11-04T14:26:08.931Z,11.92
2022-11-04T14:28:36.236Z,11.90
2022-11-04T14:31:14.040Z,11.95
2022-11-04T14:33:49.178Z,12.05
2022-11-04T14:36:52.020Z,12.05
2022-11-04T14:39:24.743Z,11.83
2022-11-04T14:42:02.095Z,11.85
2022-11-04T14:44:36.925Z,11.76
2022-11-04T14:47:13.642Z,11.73
2022-11-04T14:49:44.997Z,11.74
2022-11-04T14:52:21.955Z,11.72
2022-11-04T14:54:49.767Z,11.67
2022-11-04T14:57:22.505Z,11.66
2022-11-04T14:59:49.140Z,11.64
2022-11-04T15:02:22.813Z,11.51
2022-11-04T15:04:55.010Z,11.36
2022-11-04T15:07:31.990Z,11.26
2022-11-04T15:09:58.805Z,10.91
2022-11-04T15:12:25.490Z,10.89
2022-11-04T15:14:51.823Z,10.78
2022-11-04T15:17:20.830Z,10.73
2022-11-04T15:19:56.447Z,10.70
2022-11-04T15:22:24.000Z,10.66
2022-11-04T15:24:50.848Z,10.61
2022-11-04T15:27:20.234Z,10.51
2022-11-04T15:29:54.203Z,10.51
2022-11-04T15:32:20.588Z,10.50
2022-11-04T15:34:47.742Z,10.38
2022-11-04T15:37:14.398Z,10.38
2022-11-04T15:39:44.441Z,10.42
2022-11-04T15:42:20.853Z,10.34
2022-11-04T15:44:51.640Z,10.26
2022-11-04T15:47:17.959Z,10.20
2022-11-04T15:49:45.365Z,10.06
2022-11-04T15:52:20.204Z,10.02
2022-11-04T15:54:49.465Z,10.00
2022-11-04T15:57:23.900Z,9.81
2022-11-04T16:00:01.969Z,9.74
2022-11-04T16:02:34.004Z,9.73
2022-11-04T16:05:12.568Z,9.71
2022-11-04T16:07:50.477Z,9.67
2022-11-04T16:10:30.978Z,9.63
2022-11-04T16:13:16.793Z,9.65
2022-11-04T16:15:46.063Z,9.60
2022-11-04T16:18:23.459Z,9.51
2022-11-04T16:20:52.186Z,9.27
2022-11-04T16:23:23.333Z,9.32
2022-11-04T16:26:02.818Z,9.31
2022-11-04T16:28:31.354Z,9.33
2022-11-04T16:31:00.287Z,9.33
2022-11-04T16:33:26.746Z,9.27
2022-11-04T16:35:53.211Z,9.25
2022-11-04T16:38:19.807Z,9.32
2022-11-04T16:40:48.222Z,9.30
2022-11-04T16:43:19.801Z,9.30
2022-11-04T16:45:53.527Z,9.37
2022-11-04T16:48:20.833Z,9.29
2022-11-04T16:50:47.940Z,9.24
2022-11-04T16:53:14.567Z,9.25
2022-11-04T16:55:42.999Z,9.27
2022-11-04T16:58:18.896Z,9.27
2022-11-04T17:00:45.593Z,9.23
2022-11-04T17:03:19.089Z,9.28
2022-11-04T17:05:45.519Z,9.25
2022-11-04T17:08:15.115Z,9.27
2022-11-04T17:10:41.572Z,9.19
2022-11-04T17:13:08.503Z,9.13
2022-11-04T17:15:35.066Z,9.10
2022-11-04T17:18:01.628Z,9.09
2022-11-04T17:20:28.671Z,9.12
2022-11-04T17:22:55.417Z,9.15
2022-11-04T17:25:24.625Z,9.17
2022-11-04T17:27:51.163Z,9.17
2022-11-04T17:30:18.863Z,9.16
2022-11-04T17:32:46.830Z,9.17
2022-11-04T17:35:14.287Z,9.17
2022-11-04T17:37:41.475Z,9.17
2022-11-04T17:40:11.272Z,9.13
2022-11-04T17:42:37.817Z,9.03
2022-11-04T17:45:04.610Z,8.93
2022-11-04T17:47:35.554Z,8.91
2022-11-04T17:50:02.488Z,8.91
2022-11-04T17:52:29.178Z,8.93
2022-11-04T17:54:55.769Z,8.96
2022-11-04T17:57:22.184Z,8.97
2022-11-04T17:59:48.540Z,8.93
2022-11-04T18:02:15.112Z,8.91
2022-11-04T18:04:41.656Z,8.95
2022-11-04T18:07:08.031Z,8.95
2022-11-04T18:09:34.450Z,8.93
2022-11-04T18:12:01.114Z,8.90
2022-11-04T18:14:27.800Z,8.93
2022-11-04T18:16:54.299Z,8.92
2022-11-04T18:19:23.139Z,8.92
2022-11-04T18:21:50.059Z,8.93
2022-11-04T18:24:17.542Z,8.91
2022-11-04T18:26:44.028Z,8.88
2022-11-04T18:29:10.881Z,8.86
2022-11-04T18:31:43.367Z,8.86
2022-11-04T18:34:15.419Z,8.84
2022-11-04T18:36:42.169Z,8.84
2022-11-04T18:39:11.919Z,8.82
2022-11-04T18:41:39.101Z,8.76
2022-11-04T18:44:11.710Z,8.76
2022-11-04T18:46:38.227Z,8.71
2022-11-04T18:49:04.775Z,8.66
2022-11-04T18:51:31.536Z,8.64
2022-11-04T18:53:58.177Z,8.65
2022-11-04T18:56:24.766Z,8.68
2022-11-04T18:58:51.364Z,8.67
2022-11-04T19:01:33.007Z,8.71
2022-11-04T19:04:00.578Z,8.73
2022-11-04T19:06:33.457Z,8.74
2022-11-04T19:09:25.266Z,8.68
2022-11-04T19:11:53.530Z,8.70
2022-11-04T19:14:20.079Z,8.66
2022-11-04T19:16:46.625Z,8.62
2022-11-04T19:19:14.909Z,8.58
2022-11-04T19:21:41.353Z,8.49
2022-11-04T19:24:07.875Z,8.47
2022-11-04T19:26:35.481Z,8.47
2022-11-04T19:29:05.389Z,8.43
2022-11-04T19:31:32.603Z,8.44
2022-11-04T19:34:00.904Z,8.47
2022-11-04T19:36:27.401Z,8.48
2022-11-04T19:38:55.110Z,8.47
2022-11-04T19:41:22.692Z,8.48
2022-11-04T19:43:49.157Z,8.48
2022-11-04T19:46:15.629Z,8.49
2022-11-04T19:48:42.195Z,8.49
2022-11-04T19:51:12.388Z,8.49
2022-11-04T19:53:38.808Z,8.50
2022-11-04T19:56:05.787Z,8.46
2022-11-04T19:58:32.481Z,8.46
2022-11-04T20:01:06.572Z,8.41
2022-11-04T20:03:33.056Z,8.38
2022-11-04T20:05:59.500Z,8.39
2022-11-04T20:08:25.969Z,8.36
2022-11-04T20:10:52.393Z,8.32
2022-11-04T20:13:19.930Z,8.31
2022-11-04T20:15:46.550Z,8.20
2022-11-04T20:18:13.281Z,8.15
2022-11-04T20:20:40.047Z,8.18
2022-11-04T20:23:06.670Z,8.12
2022-11-04T20:25:33.227Z,8.13
2022-11-04T20:28:01.770Z,8.10
2022-11-04T20:30:28.207Z,8.07
2022-11-04T20:32:54.807Z,8.07
2022-11-04T20:35:21.339Z,8.03
2022-11-04T20:37:47.755Z,8.00
2022-11-04T20:40:14.294Z,8.05
2022-11-04T20:42:41.281Z,8.04
2022-11-04T20:45:07.775Z,8.01
2022-11-04T20:47:34.175Z,7.98
2022-11-04T20:50:00.726Z,8.01
2022-11-04T20:52:27.470Z,8.05
2022-11-04T20:54:53.795Z,8.06
2022-11-04T20:57:20.355Z,7.99
2022-11-04T20:59:47.000Z,7.98
2022-11-04T21:02:13.628Z,8.00
2022-11-04T21:04:40.169Z,7.95
2022-11-04T21:07:06.569Z,7.93
2022-11-04T21:09:32.911Z,7.92
2022-11-04T21:11:59.532Z,7.92
2022-11-04T21:14:26.193Z,7.84
2022-11-04T21:16:52.595Z,7.84
2022-11-04T21:19:18.993Z,7.87
2022-11-04T21:21:45.666Z,7.90
2022-11-04T21:24:14.331Z,7.89
2022-11-04T21:26:41.257Z,7.87
2022-11-04T21:29:10.700Z,7.87
2022-11-04T21:31:37.737Z,7.86
2022-11-04T21:34:05.136Z,7.92
2022-11-04T21:36:32.412Z,7.95
2022-11-04T21:38:59.456Z,7.94
2022-11-04T21:41:28.294Z,7.98
2022-11-04T21:43:56.446Z,7.96
2022-11-04T21:46:23.440Z,7.97
2022-11-04T21:48:49.971Z,7.93
2022-11-04T21:51:19.184Z,7.93
2022-11-04T21:53:45.782Z,7.91
2022-11-04T21:56:15.236Z,7.88
2022-11-04T21:58:44.781Z,7.82
2022-11-04T22:01:19.372Z,7.82
2022-11-04T22:03:50.755Z,7.75
2022-11-04T22:06:17.487Z,7.74
2022-11-04T22:08:47.109Z,7.73
2022-11-04T22:11:22.916Z,7.70
2022-11-04T22:13:59.996Z,7.67
2022-11-04T22:16:29.205Z,7.64
2022-11-04T22:18:57.671Z,7.63
2022-11-04T22:21:25.724Z,7.62
2022-11-04T22:23:53.482Z,7.60
2022-11-04T22:26:26.871Z,7.66
2022-11-04T22:28:54.127Z,7.71
2022-11-04T22:31:24.326Z,7.66
2022-11-04T22:33:51.839Z,7.68
2022-11-04T22:36:19.230Z,7.67
2022-11-04T22:38:46.036Z,7.65
2022-11-04T22:41:17.011Z,7.62
2022-11-04T22:43:43.364Z,7.65
2022-11-04T22:46:16.105Z,7.64
2022-11-04T22:48:42.872Z,7.65
2022-11-04T22:51:10.265Z,7.66
2022-11-04T22:53:37.551Z,7.63
2022-11-04T22:56:05.633Z,7.68
2022-11-04T22:58:32.914Z,7.72
2022-11-04T23:01:02.988Z,7.76
2022-11-04T23:03:29.738Z,7.76
2022-11-04T23:05:59.402Z,7.75
2022-11-04T23:08:28.158Z,7.76
2022-11-04T23:11:00.578Z,7.75
2022-11-04T23:13:27.009Z,7.78
2022-11-04T23:15:53.578Z,7.78
2022-11-04T23:18:20.245Z,7.81
2022-11-04T23:20:46.575Z,7.79
2022-11-04T23:23:13.110Z,7.79
2022-11-04T23:25:40.015Z,7.82
2022-11-04T23:28:06.481Z,7.88
2022-11-04T23:30:36.068Z,7.89
2022-11-04T23:33:07.846Z,7.89
2022-11-04T23:35:37.393Z,7.89
2022-11-04T23:38:04.379Z,7.86
2022-11-04T23:40:32.149Z,7.84
2022-11-04T23:42:58.786Z,7.81
2022-11-04T23:45:25.298Z,7.82
2022-11-04T23:47:55.527Z,7.83
2022-11-04T23:50:22.692Z,7.81
2022-11-04T23:52:49.018Z,7.82
2022-11-04T23:55:15.438Z,7.81
2022-11-04T23:57:41.758Z,7.82
